Naples, FL (34112)

2:17 AM EST on December 08, 2016 (GMT -0500)
North Lely (King's Lake) | | Change Station

Elev 13 ft 26.12 °N, 81.74 °W | Updated 49 seconds ago

Scattered Clouds
Scattered Clouds
68.4 °F
Feels Like 68.4 °F
N
3.0
Wind Variable Wind from NE

Today
High -- | Low -- °F
--% Chance of Precip.
Yesterday
High -- | Low -- °F
Precip. -- in
Pressure 30.07 in
Visibility 10.0 miles
Clouds Scattered Clouds 7000 ft
Dew Point 64 °F
Humidity 88%
Rainfall 0.00 in
Snow Depth Not available.
7:02 AM 5:35 PM
First Quarter, 60% visible
METAR KAPF 080653Z AUTO 03004KT 10SM SCT070 21/17 A3007 RMK AO2 SLP181 T02060172
Pressure 30.07 in
Visibility 10.0 miles
Clouds Scattered Clouds 7000 ft
Dew Point 64 °F
Humidity 88%
Rainfall 0.00 in
Snow Depth Not available.
7:02 AM 5:35 PM
First Quarter, 60% visible
METAR KAPF 080653Z AUTO 03004KT 10SM SCT070 21/17 A3007 RMK AO2 SLP181 T02060172

10-Day Weather Forecast

Almanac

Astronomy

Dec. 08, 2016 Rise Set
Actual Time
Civil Twilight
Nautical Twilight
Astronomical Twilight
Moon
Length of Visible Light
Length of Day
Tomorrow will be .
, % of the Moon is Illuminated

Today's Extremes

State Highs State Lows

Community

WunderPhotos

Upload Photos

1,956,259 photos uploaded!

WunderBlog® & News

Nearby

Air Quality

  Air Quality AQ Index Pollutant
Not available.

Snow Depth

Station Depth Elevation

Earthquake Activity

City Distance Mag. Time & Date
Minimum magnitude displayed is 2.5.

Coastal Water Temperatures

Place Temperature

Stations

Nearby Weather Stations

Station Location Temp. Windchill Dew Point Humidity Wind Precip. Elev Updated Type
                   

Watches & Warnings

There are currently no watches in effect.